createdAt,value
2023-03-24T00:01:20.200Z,100405.81
2023-03-24T00:03:49.016Z,100406.25
2023-03-24T00:06:18.930Z,100412.19
2023-03-24T00:08:48.002Z,100406.03
2023-03-24T00:11:15.095Z,100409.59
2023-03-24T00:13:41.992Z,100395.78
2023-03-24T00:16:11.116Z,100394.22
2023-03-24T00:18:39.366Z,100396.38
2023-03-24T00:21:07.827Z,100401.44
2023-03-24T00:23:34.832Z,100395.66
2023-03-24T00:26:04.295Z,100382.91
2023-03-24T00:28:35.034Z,100384.00
2023-03-24T00:31:04.541Z,100385.88
2023-03-24T00:33:33.012Z,100383.41
2023-03-24T00:36:00.070Z,100383.13
2023-03-24T00:38:27.033Z,100388.59
2023-03-24T00:40:54.165Z,100376.91
2023-03-24T00:43:21.012Z,100374.31
2023-03-24T00:45:48.093Z,100377.13
2023-03-24T00:48:18.356Z,100371.59
2023-03-24T00:50:46.923Z,100361.91
2023-03-24T00:53:17.166Z,100358.84
2023-03-24T00:55:49.645Z,100365.94
2023-03-24T00:58:21.825Z,100372.31
2023-03-24T01:00:52.622Z,100369.13
2023-03-24T01:03:22.194Z,100379.59
2023-03-24T01:05:49.048Z,100378.06
2023-03-24T01:08:20.403Z,100380.44
2023-03-24T01:10:55.693Z,100373.81
2023-03-24T01:13:24.464Z,100380.88
2023-03-24T01:15:52.143Z,100377.38
2023-03-24T01:18:19.071Z,100368.03
2023-03-24T01:20:47.289Z,100370.50
2023-03-24T01:23:15.454Z,100375.38
2023-03-24T01:25:48.183Z,100371.22
2023-03-24T01:28:17.292Z,100378.66
2023-03-24T01:30:44.387Z,100374.28
2023-03-24T01:33:11.393Z,100379.16
2023-03-24T01:35:38.274Z,100369.00
2023-03-24T01:38:07.360Z,100375.13
2023-03-24T01:40:35.078Z,100374.78
2023-03-24T01:43:01.869Z,100359.66
2023-03-24T01:45:40.778Z,100359.78
2023-03-24T01:48:22.115Z,100355.31
2023-03-24T01:50:58.575Z,100365.53
2023-03-24T01:53:25.580Z,100365.06
2023-03-24T01:55:52.372Z,100363.06
2023-03-24T01:58:19.264Z,100360.94
2023-03-24T02:00:46.470Z,100355.75
2023-03-24T02:03:14.993Z,100351.22
2023-03-24T02:05:41.994Z,100357.72
2023-03-24T02:08:34.862Z,100357.50
2023-03-24T02:11:01.801Z,100355.38
2023-03-24T02:13:28.696Z,100358.31
2023-03-24T02:16:17.566Z,100353.94
2023-03-24T02:19:02.996Z,100358.06
2023-03-24T02:21:45.853Z,100354.75
2023-03-24T02:24:55.320Z,100360.66
2023-03-24T02:27:33.996Z,100367.75
2023-03-24T02:30:40.461Z,100364.47
2023-03-24T02:33:14.148Z,100359.50
2023-03-24T02:36:15.961Z,100358.09
2023-03-24T02:39:07.448Z,100359.03
2023-03-24T02:41:39.793Z,100347.94
2023-03-24T02:44:44.140Z,100342.28
2023-03-24T02:47:14.982Z,100342.03
2023-03-24T02:49:44.459Z,100344.63
2023-03-24T02:52:23.072Z,100352.56
2023-03-24T02:54:52.632Z,100337.91
2023-03-24T02:57:23.749Z,100336.97
2023-03-24T02:59:57.819Z,100341.91
2023-03-24T03:02:27.553Z,100346.38
2023-03-24T03:04:56.132Z,100333.97
2023-03-24T03:07:25.474Z,100319.78
2023-03-24T03:10:14.706Z,100320.34
2023-03-24T03:12:41.467Z,100329.56
2023-03-24T03:15:12.687Z,100329.22
2023-03-24T03:17:59.954Z,100329.78
2023-03-24T03:20:26.883Z,100314.63
2023-03-24T03:23:05.845Z,100310.81
2023-03-24T03:25:38.792Z,100311.63
2023-03-24T03:28:05.656Z,100314.53
2023-03-24T03:30:37.792Z,100315.31
2023-03-24T03:33:07.610Z,100312.63
2023-03-24T03:35:43.633Z,100299.81
2023-03-24T03:38:16.077Z,100304.00
2023-03-24T03:40:56.216Z,100297.56
2023-03-24T03:43:23.339Z,100289.97
2023-03-24T03:45:50.202Z,100288.47
2023-03-24T03:48:17.274Z,100295.19
2023-03-24T03:50:44.087Z,100293.84
2023-03-24T03:53:11.382Z,100297.84
2023-03-24T03:55:38.341Z,100305.13
2023-03-24T03:58:05.200Z,100303.75
2023-03-24T04:00:32.079Z,100303.38
2023-03-24T04:03:25.769Z,100302.19
2023-03-24T04:06:29.983Z,100297.66
2023-03-24T04:09:04.096Z,100285.47
2023-03-24T04:12:21.727Z,100273.97
2023-03-24T04:15:01.093Z,100273.69
2023-03-24T04:17:46.351Z,100270.13
2023-03-24T04:20:19.164Z,100259.44
2023-03-24T04:23:09.711Z,100251.50
2023-03-24T04:26:02.045Z,100246.56
2023-03-24T04:28:58.310Z,100244.34
2023-03-24T04:31:28.170Z,100242.72
2023-03-24T04:34:16.465Z,100239.16
2023-03-24T04:36:50.619Z,100239.56
2023-03-24T04:39:19.518Z,100230.78
2023-03-24T04:41:47.602Z,100234.09
2023-03-24T04:44:17.663Z,100228.06
2023-03-24T04:46:45.109Z,100231.22
2023-03-24T04:49:11.964Z,100224.50
2023-03-24T04:51:38.934Z,100218.22
2023-03-24T04:54:08.098Z,100222.84
2023-03-24T04:56:44.076Z,100222.31
2023-03-24T04:59:13.039Z,100215.75
2023-03-24T05:01:40.418Z,100209.28
2023-03-24T05:04:07.768Z,100213.97
2023-03-24T05:06:34.682Z,100206.53
2023-03-24T05:09:01.512Z,100201.88
2023-03-24T05:11:28.459Z,100201.16
2023-03-24T05:13:55.659Z,100199.63
2023-03-24T05:16:22.583Z,100198.41
2023-03-24T05:18:49.371Z,100191.00
2023-03-24T05:21:16.281Z,100190.56
2023-03-24T05:23:43.232Z,100180.81
2023-03-24T05:26:10.140Z,100175.72
2023-03-24T05:28:36.932Z,100167.59
2023-03-24T05:31:03.848Z,100162.09
2023-03-24T05:33:30.966Z,100165.25
2023-03-24T05:35:57.777Z,100163.56
2023-03-24T05:38:24.617Z,100170.53
2023-03-24T05:40:51.478Z,100159.94
2023-03-24T05:43:18.307Z,100164.25
2023-03-24T05:45:45.511Z,100160.88
2023-03-24T05:48:12.551Z,100150.03
2023-03-24T05:50:39.328Z,100154.47
2023-03-24T05:53:06.318Z,100150.91
2023-03-24T05:55:33.151Z,100143.47
2023-03-24T05:58:02.198Z,100136.09
2023-03-24T06:00:31.806Z,100141.28
2023-03-24T06:02:59.047Z,100146.66
2023-03-24T06:05:26.502Z,100137.56
2023-03-24T06:07:58.771Z,100131.56
2023-03-24T06:10:29.513Z,100126.53
2023-03-24T06:12:56.492Z,100130.31
2023-03-24T06:15:24.455Z,100130.50
2023-03-24T06:17:54.825Z,100126.59
2023-03-24T06:20:21.952Z,100118.09
2023-03-24T06:22:48.913Z,100124.31
2023-03-24T06:25:16.966Z,100129.41
2023-03-24T06:27:46.330Z,100128.78
2023-03-24T06:30:16.675Z,100109.66
2023-03-24T06:32:46.644Z,100105.41
2023-03-24T06:35:15.013Z,100105.09
2023-03-24T06:37:42.114Z,100102.53
2023-03-24T06:40:12.908Z,100108.59
2023-03-24T06:42:39.755Z,100106.94
2023-03-24T06:45:07.509Z,100088.97
2023-03-24T06:47:34.387Z,100085.03
2023-03-24T06:50:01.263Z,100090.75
2023-03-24T06:52:28.549Z,100084.34
2023-03-24T06:54:55.911Z,100074.69
2023-03-24T06:57:22.734Z,100061.09
2023-03-24T06:59:50.158Z,100057.25
2023-03-24T07:02:17.659Z,100060.97
2023-03-24T07:04:45.893Z,100041.81
2023-03-24T07:07:50.034Z,100044.03
2023-03-24T07:09:59.916Z,100048.53
2023-03-24T07:12:26.782Z,100042.34
2023-03-24T07:14:53.613Z,100040.06
2023-03-24T07:17:20.558Z,100036.97
2023-03-24T07:19:47.561Z,100040.56
2023-03-24T07:22:14.351Z,100022.06
2023-03-24T07:24:41.531Z,100015.06
2023-03-24T07:27:09.275Z,100013.06
2023-03-24T07:29:36.480Z,100009.97
2023-03-24T07:32:04.134Z,100001.31
2023-03-24T07:34:32.027Z,99997.63
2023-03-24T07:37:00.687Z,99990.91
2023-03-24T07:39:28.669Z,99985.84
2023-03-24T07:41:55.471Z,99991.66
2023-03-24T07:44:22.877Z,99992.34
2023-03-24T07:46:49.756Z,99990.38
2023-03-24T07:49:19.812Z,99976.34
2023-03-24T07:51:46.977Z,99976.50
2023-03-24T07:54:13.851Z,99968.56
2023-03-24T07:56:40.688Z,99958.97
2023-03-24T07:59:09.814Z,99961.19
2023-03-24T08:01:37.648Z,99961.81
2023-03-24T08:04:07.048Z,99945.78
2023-03-24T08:06:34.924Z,99946.81
2023-03-24T08:09:01.930Z,99951.88
2023-03-24T08:11:29.576Z,99941.91
2023-03-24T08:13:56.520Z,99944.97
2023-03-24T08:16:26.134Z,99940.09
2023-03-24T08:18:53.025Z,99924.22
2023-03-24T08:21:19.910Z,99919.13
2023-03-24T08:23:46.743Z,99929.69
2023-03-24T08:26:13.584Z,99931.34
2023-03-24T08:28:41.625Z,99920.56
2023-03-24T08:31:08.490Z,99919.13
2023-03-24T08:33:35.705Z,99920.75
2023-03-24T08:36:02.521Z,99920.13
2023-03-24T08:38:32.548Z,99913.22
2023-03-24T08:41:06.983Z,99915.25
2023-03-24T08:43:35.038Z,99909.34
2023-03-24T08:46:02.080Z,99903.69
2023-03-24T08:48:29.593Z,99899.41
2023-03-24T08:50:56.749Z,99894.06
2023-03-24T08:53:23.622Z,99886.66
2023-03-24T08:55:50.595Z,99882.97
2023-03-24T08:58:19.148Z,99875.13
2023-03-24T09:00:46.763Z,99864.13
2023-03-24T09:03:18.508Z,99843.31
2023-03-24T09:05:46.818Z,99842.88
2023-03-24T09:08:14.265Z,99842.81
2023-03-24T09:10:41.834Z,99840.13
2023-03-24T09:13:08.711Z,99834.22
2023-03-24T09:15:35.817Z,99836.41
2023-03-24T09:18:02.936Z,99834.47
2023-03-24T09:20:29.753Z,99830.41
2023-03-24T09:22:56.798Z,99824.94
2023-03-24T09:25:23.660Z,99812.53
2023-03-24T09:27:50.512Z,99818.97
2023-03-24T09:30:18.027Z,99798.94
2023-03-24T09:32:45.631Z,99805.44
2023-03-24T09:35:12.830Z,99786.13
2023-03-24T09:37:40.528Z,99776.47
2023-03-24T09:40:07.964Z,99775.47
2023-03-24T09:42:39.403Z,99775.53
2023-03-24T09:45:19.195Z,99768.66
2023-03-24T09:48:08.000Z,99746.75
2023-03-24T09:50:54.073Z,99730.81
2023-03-24T09:53:54.739Z,99726.69
2023-03-24T09:56:22.337Z,99720.13
2023-03-24T09:58:53.327Z,99707.97
2023-03-24T10:01:20.153Z,99718.09
2023-03-24T10:03:47.156Z,99697.09
2023-03-24T10:06:18.309Z,99707.03
2023-03-24T10:08:49.012Z,99698.50
2023-03-24T10:11:41.143Z,99699.28
2023-03-24T10:14:10.783Z,99699.00
2023-03-24T10:17:14.748Z,99700.50
2023-03-24T10:20:18.934Z,99708.13
2023-03-24T10:23:24.342Z,99704.66
2023-03-24T10:26:21.398Z,99709.34
2023-03-24T10:28:52.588Z,99713.53
2023-03-24T10:31:29.505Z,99703.03
2023-03-24T10:33:56.921Z,99699.75
2023-03-24T10:36:23.783Z,99694.97
2023-03-24T10:38:51.016Z,99685.50
2023-03-24T10:41:22.128Z,99684.28
2023-03-24T10:43:50.384Z,99683.16
2023-03-24T10:46:24.659Z,99679.28
2023-03-24T10:48:53.856Z,99680.22
2023-03-24T10:51:29.140Z,99683.44
2023-03-24T10:54:27.667Z,99682.53
2023-03-24T10:57:00.929Z,99675.97
2023-03-24T11:00:27.223Z,99681.47
2023-03-24T11:02:59.516Z,99687.19
2023-03-24T11:05:35.176Z,99674.00
2023-03-24T11:08:26.093Z,99676.81
2023-03-24T11:10:52.894Z,99677.91
2023-03-24T11:13:40.990Z,99668.09
2023-03-24T11:16:12.092Z,99679.97
2023-03-24T11:18:39.011Z,99675.16
2023-03-24T11:21:06.332Z,99682.91
2023-03-24T11:23:34.826Z,99675.09
2023-03-24T11:26:23.154Z,99676.84
2023-03-24T11:28:54.398Z,99674.94
2023-03-24T11:31:24.705Z,99666.63
2023-03-24T11:34:01.505Z,99658.91
2023-03-24T11:36:33.073Z,99659.97
2023-03-24T11:39:04.585Z,99655.94
2023-03-24T11:41:31.453Z,99655.75
2023-03-24T11:44:23.584Z,99650.44
2023-03-24T11:46:58.933Z,99636.16
2023-03-24T11:49:34.127Z,99648.81
2023-03-24T11:52:00.932Z,99651.25
2023-03-24T11:54:33.039Z,99650.50
2023-03-24T11:57:01.941Z,99644.72
2023-03-24T11:59:32.285Z,99643.69
2023-03-24T12:02:20.008Z,99649.25
2023-03-24T12:04:59.797Z,99654.25
2023-03-24T12:08:01.393Z,99652.34
2023-03-24T12:10:40.342Z,99663.22
2023-03-24T12:13:29.620Z,99652.00
2023-03-24T12:16:27.623Z,99650.69
2023-03-24T12:19:28.471Z,99647.84
2023-03-24T12:22:17.019Z,99651.22
2023-03-24T12:24:58.837Z,99641.94
2023-03-24T12:27:36.052Z,99646.31
2023-03-24T12:30:23.673Z,99649.22
2023-03-24T12:33:18.218Z,99640.03
2023-03-24T12:35:57.257Z,99644.44
2023-03-24T12:38:49.128Z,99646.91
2023-03-24T12:41:25.280Z,99646.41
2023-03-24T12:44:13.791Z,99640.94
2023-03-24T12:47:05.148Z,99640.72
2023-03-24T12:49:50.738Z,99636.91
2023-03-24T12:52:23.324Z,99637.13
2023-03-24T12:55:18.391Z,99623.81
2023-03-24T12:57:59.946Z,99630.47
2023-03-24T13:00:33.030Z,99624.69
2023-03-24T13:03:06.159Z,99620.84
2023-03-24T13:06:16.264Z,99623.34
2023-03-24T13:08:49.418Z,99614.78
2023-03-24T13:11:26.737Z,99624.69
2023-03-24T13:13:59.061Z,99614.16
2023-03-24T13:16:28.498Z,99613.91
2023-03-24T13:18:56.364Z,99610.28
2023-03-24T13:21:26.051Z,99607.00
2023-03-24T13:24:08.919Z,99608.50
2023-03-24T13:26:58.618Z,99609.16
2023-03-24T13:29:48.426Z,99611.75
2023-03-24T13:32:25.460Z,99610.63
2023-03-24T13:35:14.923Z,99614.25
2023-03-24T13:37:52.527Z,99609.25
2023-03-24T13:40:32.788Z,99604.47
2023-03-24T13:43:01.347Z,99612.78
2023-03-24T13:45:52.706Z,99615.19
2023-03-24T13:48:44.306Z,99594.09
2023-03-24T13:51:17.575Z,99616.00
2023-03-24T13:53:54.815Z,99607.78
2023-03-24T13:56:38.975Z,99619.47
2023-03-24T13:59:29.823Z,99619.81
2023-03-24T14:02:22.653Z,99622.53
2023-03-24T14:04:55.780Z,99623.78
2023-03-24T14:07:41.249Z,99625.44
2023-03-24T14:10:14.138Z,99628.09
2023-03-24T14:12:59.800Z,99617.75
2023-03-24T14:15:35.941Z,99619.78
2023-03-24T14:18:25.044Z,99622.84
2023-03-24T14:20:58.131Z,99624.50
2023-03-24T14:23:34.238Z,99626.78
2023-03-24T14:26:01.110Z,99622.72
2023-03-24T14:28:41.673Z,99624.97
2023-03-24T14:31:19.155Z,99638.19
2023-03-24T14:34:02.170Z,99640.25
2023-03-24T14:36:40.126Z,99642.06
2023-03-24T14:39:29.656Z,99643.88
2023-03-24T14:41:59.068Z,99649.97
2023-03-24T14:44:49.554Z,99653.03
2023-03-24T14:47:23.813Z,99642.84
2023-03-24T14:49:54.774Z,99644.09
2023-03-24T14:52:43.826Z,99643.47
2023-03-24T14:55:12.525Z,99623.78
2023-03-24T14:57:43.831Z,99620.34
2023-03-24T15:00:29.264Z,99635.38
2023-03-24T15:02:59.046Z,99618.84
2023-03-24T15:05:31.684Z,99610.50
2023-03-24T15:08:21.683Z,99618.66
2023-03-24T15:10:51.514Z,99624.91
2023-03-24T15:13:40.128Z,99631.25
2023-03-24T15:16:12.897Z,99630.25
2023-03-24T15:19:02.046Z,99630.13
2023-03-24T15:21:33.621Z,99623.50
2023-03-24T15:24:01.605Z,99601.81
2023-03-24T15:26:29.989Z,99614.25
2023-03-24T15:29:01.679Z,99618.59
2023-03-24T15:31:33.994Z,99624.59
2023-03-24T15:34:35.144Z,99641.34
2023-03-24T15:37:05.437Z,99651.22
2023-03-24T15:39:36.936Z,99654.41
2023-03-24T15:42:15.989Z,99657.28
2023-03-24T15:44:43.170Z,99666.28
2023-03-24T15:47:21.512Z,99664.50
2023-03-24T15:49:52.467Z,99665.13
2023-03-24T15:52:38.432Z,99668.59
2023-03-24T15:55:24.912Z,99673.34
2023-03-24T15:57:59.623Z,99659.75
2023-03-24T16:00:28.613Z,99706.69
2023-03-24T16:02:57.787Z,99730.63
2023-03-24T16:05:26.355Z,99764.25
2023-03-24T16:08:04.406Z,99749.66
2023-03-24T16:10:32.612Z,99731.13
2023-03-24T16:13:25.580Z,99750.72
2023-03-24T16:15:59.714Z,99757.34
2023-03-24T16:18:34.171Z,99754.06
2023-03-24T16:21:02.369Z,99766.00
2023-03-24T16:23:30.525Z,99772.47
2023-03-24T16:25:57.362Z,99768.75
2023-03-24T16:28:25.236Z,99767.91
2023-03-24T16:31:05.064Z,99764.78
2023-03-24T16:33:32.725Z,99771.19
2023-03-24T16:36:00.735Z,99775.09
2023-03-24T16:38:27.705Z,99779.06
2023-03-24T16:40:55.966Z,99789.28
2023-03-24T16:43:23.046Z,99782.56
2023-03-24T16:45:50.450Z,99780.31
2023-03-24T16:48:17.790Z,99788.91
2023-03-24T16:50:46.350Z,99782.72
2023-03-24T16:53:13.287Z,99784.44
2023-03-24T16:55:41.647Z,99788.31
2023-03-24T16:58:08.684Z,99796.06
2023-03-24T17:00:37.159Z,99796.19
2023-03-24T17:03:05.055Z,99797.88
2023-03-24T17:05:37.812Z,99799.88
2023-03-24T17:08:04.784Z,99804.84
2023-03-24T17:10:31.568Z,99810.13
2023-03-24T17:12:58.360Z,99794.41
2023-03-24T17:15:26.825Z,99803.63
2023-03-24T17:17:53.841Z,99810.03
2023-03-24T17:20:21.233Z,99807.25
2023-03-24T17:22:49.912Z,99796.63
2023-03-24T17:25:18.558Z,99790.44
2023-03-24T17:27:45.792Z,99806.41
2023-03-24T17:30:19.850Z,99802.69
2023-03-24T17:32:46.950Z,99803.88
2023-03-24T17:35:15.484Z,99809.09
2023-03-24T17:37:42.268Z,99822.91
2023-03-24T17:40:13.291Z,99828.59
2023-03-24T17:42:41.199Z,99810.44
2023-03-24T17:45:09.470Z,99805.56
2023-03-24T17:47:36.494Z,99806.53
2023-03-24T17:50:09.579Z,99793.28
2023-03-24T17:52:40.718Z,99799.69
2023-03-24T17:55:07.795Z,99789.69
2023-03-24T17:57:34.647Z,99806.72
2023-03-24T18:00:01.723Z,99808.69
2023-03-24T18:02:28.631Z,99811.78
2023-03-24T18:04:55.542Z,99823.25
2023-03-24T18:07:23.189Z,99821.13
2023-03-24T18:09:50.206Z,99818.34
2023-03-24T18:12:17.962Z,99812.47
2023-03-24T18:14:45.586Z,99847.63
2023-03-24T18:17:12.746Z,99834.06
2023-03-24T18:19:40.371Z,99819.63
2023-03-24T18:22:07.389Z,99828.47
2023-03-24T18:24:34.551Z,99832.09
2023-03-24T18:27:02.684Z,99827.66
2023-03-24T18:29:30.440Z,99834.66
2023-03-24T18:31:57.422Z,99837.28
2023-03-24T18:34:24.345Z,99847.09
2023-03-24T18:36:51.229Z,99847.59
2023-03-24T18:39:18.000Z,99856.56
2023-03-24T18:41:44.864Z,99854.28
2023-03-24T18:44:13.020Z,99855.53
2023-03-24T18:46:40.369Z,99868.13
2023-03-24T18:49:07.421Z,99861.22
2023-03-24T18:51:35.627Z,99876.91
2023-03-24T18:54:02.490Z,99868.69
2023-03-24T18:56:29.416Z,99863.13
2023-03-24T18:58:56.281Z,99866.06
2023-03-24T19:01:26.287Z,99864.53
2023-03-24T19:03:53.204Z,99861.22
2023-03-24T19:06:20.383Z,99860.00
2023-03-24T19:08:50.484Z,99863.06
2023-03-24T19:11:17.440Z,99856.16
2023-03-24T19:13:46.317Z,99867.47
2023-03-24T19:16:13.201Z,99868.81
2023-03-24T19:18:40.156Z,99861.53
2023-03-24T19:21:07.447Z,99867.00
2023-03-24T19:23:34.470Z,99877.34
2023-03-24T19:26:02.095Z,99874.59
2023-03-24T19:28:30.830Z,99879.06
2023-03-24T19:30:59.347Z,99870.94
2023-03-24T19:33:29.543Z,99862.94
2023-03-24T19:35:56.940Z,99874.09
2023-03-24T19:38:24.095Z,99884.19
2023-03-24T19:40:54.214Z,99879.97
2023-03-24T19:43:21.940Z,99878.34
2023-03-24T19:45:52.628Z,99883.28
2023-03-24T19:48:19.622Z,99884.13
2023-03-24T19:50:46.552Z,99879.09
2023-03-24T19:53:13.467Z,99885.56
2023-03-24T19:55:40.384Z,99884.88
2023-03-24T19:58:07.260Z,99886.56
2023-03-24T20:00:34.956Z,99894.09
2023-03-24T20:03:02.156Z,99888.34
2023-03-24T20:05:29.015Z,99891.50
2023-03-24T20:07:59.648Z,99909.56
2023-03-24T20:10:27.064Z,99908.06
2023-03-24T20:12:54.152Z,99902.84
2023-03-24T20:15:21.041Z,99910.78
2023-03-24T20:17:48.325Z,99906.53
2023-03-24T20:20:15.272Z,99906.41
2023-03-24T20:22:44.773Z,99901.88
2023-03-24T20:25:13.206Z,99914.72
2023-03-24T20:27:40.101Z,99922.09
2023-03-24T20:30:08.461Z,99927.16
2023-03-24T20:32:35.823Z,99931.94
2023-03-24T20:35:06.098Z,99927.41
2023-03-24T20:37:35.854Z,99927.78
2023-03-24T20:40:06.901Z,99932.41
2023-03-24T20:42:33.790Z,99936.09
2023-03-24T20:45:00.974Z,99933.22
2023-03-24T20:47:27.997Z,99935.63
2023-03-24T20:49:54.937Z,99940.16
2023-03-24T20:52:23.141Z,99940.50
2023-03-24T20:54:51.491Z,99928.44
2023-03-24T20:57:19.306Z,99929.16
2023-03-24T20:59:49.436Z,99932.69
2023-03-24T21:02:16.388Z,99926.94
2023-03-24T21:04:43.518Z,99938.16
2023-03-24T21:07:10.556Z,99935.81
2023-03-24T21:09:37.551Z,99934.28
2023-03-24T21:12:06.630Z,99940.28
2023-03-24T21:14:34.201Z,99945.63
2023-03-24T21:17:01.513Z,99935.50
2023-03-24T21:19:28.501Z,99948.06
2023-03-24T21:21:56.212Z,99947.25
2023-03-24T21:24:23.618Z,99946.44
2023-03-24T21:26:51.335Z,99943.69
2023-03-24T21:29:18.255Z,99943.69
2023-03-24T21:31:45.205Z,99943.59
2023-03-24T21:34:12.108Z,99943.59
2023-03-24T21:36:39.106Z,99945.38
2023-03-24T21:39:07.537Z,99944.97
2023-03-24T21:41:34.579Z,99946.19
2023-03-24T21:44:01.538Z,99949.84
2023-03-24T21:46:28.372Z,99958.34
2023-03-24T21:48:55.940Z,99951.38
2023-03-24T21:51:30.768Z,99960.03
2023-03-24T21:54:04.688Z,99957.56
2023-03-24T21:56:32.583Z,99960.03
2023-03-24T21:58:59.850Z,99961.94
2023-03-24T22:01:27.326Z,99964.22
2023-03-24T22:03:59.056Z,99965.44
2023-03-24T22:06:29.444Z,99967.47
2023-03-24T22:08:58.804Z,99967.03
2023-03-24T22:11:25.978Z,99964.13
2023-03-24T22:13:53.082Z,99968.59
2023-03-24T22:16:19.995Z,99965.56
2023-03-24T22:18:47.540Z,99964.88
2023-03-24T22:21:14.507Z,99968.66
2023-03-24T22:23:42.968Z,99969.88
2023-03-24T22:26:14.495Z,99960.94
2023-03-24T22:28:42.475Z,99978.72
2023-03-24T22:31:13.827Z,99978.97
2023-03-24T22:33:40.784Z,99985.50
2023-03-24T22:36:08.478Z,99982.81
2023-03-24T22:38:35.632Z,99992.72
2023-03-24T22:41:04.906Z,99988.41
2023-03-24T22:43:32.002Z,99986.66
2023-03-24T22:45:58.904Z,99983.50
2023-03-24T22:48:25.832Z,99981.16
2023-03-24T22:50:53.089Z,99984.13
2023-03-24T22:53:20.502Z,99980.00
2023-03-24T22:55:47.526Z,99983.66
2023-03-24T22:58:14.780Z,99986.38
2023-03-24T23:00:42.209Z,99990.59
2023-03-24T23:03:09.584Z,99994.38
2023-03-24T23:05:43.588Z,99998.28
2023-03-24T23:08:10.581Z,100002.53
2023-03-24T23:10:37.561Z,99999.22
2023-03-24T23:13:04.525Z,100006.75
2023-03-24T23:15:32.156Z,99999.22
2023-03-24T23:17:59.547Z,99998.75
2023-03-24T23:20:28.233Z,99993.72
2023-03-24T23:22:55.663Z,100002.06
2023-03-24T23:25:22.716Z,99997.81
2023-03-24T23:27:49.717Z,100001.13
2023-03-24T23:30:16.664Z,100004.28
2023-03-24T23:32:44.373Z,100000.16
2023-03-24T23:35:11.525Z,99997.94
2023-03-24T23:37:39.678Z,99993.59
2023-03-24T23:40:13.126Z,100001.97
2023-03-24T23:42:46.801Z,99993.50
2023-03-24T23:45:15.186Z,100002.22
2023-03-24T23:47:42.753Z,100003.50
2023-03-24T23:50:10.078Z,99992.56
2023-03-24T23:52:37.468Z,100005.28
2023-03-24T23:55:04.838Z,99987.34
2023-03-24T23:57:31.789Z,99989.59
2023-03-24T23:59:59.998Z,99983.13
